Time;durP1;ratioP1;P1;durP2;ratioP2;P2;SDS_P1;SDS_P2;PMS_P1;PMS_P2;Temp;Humidity;BMP_temperature;BMP_pressure;BME280_temperature;BME280_humidity;BME280_pressure;Samples;Min_cycle;Max_cycle;Signal;HPM_P1;HPM_P2
2023/02/12 00:00:41;;;;;;;9.93;6.97;;;;;;;10.27;69.59;101908.88;5031070;28;20148;-80
2023/02/12 00:03:08;;;;;;;12.40;7.55;;;;;;;10.27;69.76;101919.41;5030527;28;20048;-79
2023/02/12 00:05:40;;;;;;;15.98;8.15;;;;;;;10.25;69.71;101917.72;5030484;28;20100;-80
2023/02/12 00:08:10;;;;;;;14.75;8.90;;;;;;;10.26;69.54;101919.44;5029969;28;20045;-79
2023/02/12 00:10:41;;;;;;;16.90;8.57;;;;;;;10.25;69.91;101921.19;5030962;28;20072;-81
2023/02/12 00:13:12;;;;;;;14.15;8.30;;;;;;;10.24;69.61;101908.94;5030582;28;20104;-80
2023/02/12 00:15:40;;;;;;;12.73;8.10;;;;;;;10.25;69.79;101905.38;5030315;28;20077;-81
2023/02/12 00:18:07;;;;;;;16.77;9.32;;;;;;;10.25;69.78;101921.19;5030225;28;20091;-82
2023/02/12 00:20:35;;;;;;;14.80;9.57;;;;;;;10.25;70.01;101920.34;5012818;28;20060;-81
2023/02/12 00:23:01;;;;;;;16.08;9.68;;;;;;;10.25;69.89;101921.19;5030996;28;20049;-81
2023/02/12 00:25:28;;;;;;;18.77;10.43;;;;;;;10.25;69.84;101923.81;5030107;28;20048;-80
2023/02/12 00:27:54;;;;;;;13.55;9.95;;;;;;;10.26;69.85;101917.69;5023325;28;20042;-79
2023/02/12 00:30:21;;;;;;;16.58;10.30;;;;;;;10.26;69.96;101922.94;5014848;28;20068;-80
2023/02/12 00:32:48;;;;;;;19.08;10.88;;;;;;;10.27;69.86;101910.63;5034603;28;20045;-78
2023/02/12 00:35:15;;;;;;;17.13;10.68;;;;;;;10.27;69.99;101916.78;5033799;28;20045;-79
2023/02/12 00:37:41;;;;;;;15.25;10.55;;;;;;;10.28;69.95;101918.50;5034243;28;20077;-80
2023/02/12 00:40:09;;;;;;;14.23;10.20;;;;;;;10.27;69.88;101914.13;5034417;28;20049;-81
2023/02/12 00:42:36;;;;;;;14.45;10.40;;;;;;;10.28;69.83;101913.22;5034532;28;20056;-80
2023/02/12 00:45:02;;;;;;;18.70;11.88;;;;;;;10.28;69.77;101915.03;5033754;28;20061;-79
2023/02/12 00:47:29;;;;;;;19.08;11.27;;;;;;;10.29;69.91;101914.13;5033938;28;20136;-79
2023/02/12 00:49:56;;;;;;;18.70;11.40;;;;;;;10.29;69.82;101919.38;5034002;28;20126;-79
2023/02/12 00:52:23;;;;;;;14.60;11.02;;;;;;;10.30;69.95;101923.72;5034407;28;20215;-81
2023/02/12 00:54:49;;;;;;;16.80;11.60;;;;;;;10.31;69.85;101930.72;5033899;28;20056;-81
2023/02/12 00:57:15;;;;;;;19.08;12.30;;;;;;;10.30;69.88;101927.25;5033589;28;20049;-80
2023/02/12 00:59:42;;;;;;;19.50;11.68;;;;;;;10.30;69.78;101924.63;5013312;28;20052;-79
2023/02/12 01:02:09;;;;;;;19.55;11.82;;;;;;;10.32;69.86;101934.25;5030196;28;20054;-79
2023/02/12 01:04:35;;;;;;;18.63;12.80;;;;;;;10.32;69.88;101926.34;5033743;28;20464;-80
2023/02/12 01:07:02;;;;;;;19.77;12.27;;;;;;;10.30;69.79;101934.25;5032560;28;20410;-79
2023/02/12 01:09:28;;;;;;;17.10;11.55;;;;;;;10.31;69.88;101928.09;5033876;28;20091;-79
2023/02/12 01:11:55;;;;;;;21.15;12.77;;;;;;;10.30;69.87;101937.78;5012654;28;20088;-79
2023/02/12 01:14:21;;;;;;;19.15;13.23;;;;;;;10.30;69.84;101934.25;5014280;28;20077;-79
2023/02/12 01:16:48;;;;;;;18.48;12.43;;;;;;;10.29;69.95;101941.28;5032552;28;20504;-79
2023/02/12 01:19:15;;;;;;;19.40;13.10;;;;;;;10.28;69.90;101934.28;5033818;28;20132;-78
2023/02/12 01:21:41;;;;;;;21.92;12.95;;;;;;;10.28;70.00;101936.06;5033480;28;20041;-79
2023/02/12 01:24:08;;;;;;;20.52;13.05;;;;;;;10.28;70.08;101934.28;5033650;28;20080;-79
2023/02/12 01:26:35;;;;;;;22.80;13.23;;;;;;;10.28;69.89;101942.19;5032658;28;20488;-79
2023/02/12 01:29:04;;;;;;;16.27;12.02;;;;;;;10.29;69.98;101941.28;5033286;28;20053;-79
2023/02/12 01:31:35;;;;;;;22.88;13.40;;;;;;;10.28;70.09;101931.66;5014807;28;20049;-79
2023/02/12 01:34:03;;;;;;;19.90;12.85;;;;;;;10.29;69.92;101936.00;5033480;28;20103;-81
2023/02/12 01:36:30;;;;;;;20.85;12.85;;;;;;;10.29;69.83;101930.75;5014553;28;20048;-79
2023/02/12 01:38:58;;;;;;;18.80;13.27;;;;;;;10.29;70.00;101929.91;5032739;28;20050;-80
2023/02/12 01:41:27;;;;;;;27.27;13.18;;;;;;;10.28;70.02;101933.44;5032685;28;20072;-79
2023/02/12 01:44:19;;;;;;;21.33;13.30;;;;;;;10.25;70.12;101938.75;5033007;28;20041;-80
2023/02/12 01:46:49;;;;;;;24.50;14.18;;;;;;;10.29;69.92;101928.13;4995493;28;20045;-79
2023/02/12 01:49:21;;;;;;;20.98;13.15;;;;;;;10.26;69.92;101928.22;5030329;28;20390;-81
2023/02/12 01:51:52;;;;;;;21.07;13.97;;;;;;;10.27;69.89;101936.94;5033184;28;20049;-79
2023/02/12 01:54:22;;;;;;;20.83;13.73;;;;;;;10.26;69.91;101925.56;5032775;28;20053;-79
2023/02/12 01:56:48;;;;;;;20.08;13.35;;;;;;;10.27;69.95;101929.06;5032224;28;20132;-78
2023/02/12 01:59:16;;;;;;;24.17;14.73;;;;;;;10.26;70.06;101922.94;5032780;28;20393;-79
2023/02/12 02:01:43;;;;;;;22.98;14.65;;;;;;;10.27;69.90;101927.31;5024244;28;20771;-80
2023/02/12 02:04:18;;;;;;;18.35;13.45;;;;;;;10.24;70.02;101929.97;5033009;28;20603;-80
2023/02/12 02:06:54;;;;;;;26.95;14.65;;;;;;;10.24;70.00;101929.13;5031825;28;20482;-79
2023/02/12 02:09:21;;;;;;;21.75;14.18;;;;;;;10.27;69.90;101929.06;5032877;28;20137;-79
2023/02/12 02:14:33;;;;;;;22.52;14.30;;;;;;;10.25;69.74;101918.56;5032573;28;20387;-80
2023/02/12 02:17:16;;;;;;;19.38;13.77;;;;;;;10.20;69.88;101917.78;5010921;28;20449;-81
2023/02/12 02:20:02;;;;;;;21.70;13.82;;;;;;;10.18;69.90;101914.34;5025472;28;20385;-81
2023/02/12 02:22:47;;;;;;;21.23;13.40;;;;;;;10.16;69.99;101908.22;5014162;28;20053;-80
2023/02/12 02:25:26;;;;;;;21.02;13.57;;;;;;;10.17;69.75;101917.88;5031691;28;20160;-80
2023/02/12 02:28:32;;;;;;;21.15;13.73;;;;;;;10.12;69.96;101915.31;5031813;28;20143;-79
2023/02/12 02:31:02;;;;;;;22.27;13.40;;;;;;;10.14;69.77;101915.28;5032188;28;20080;-79
2023/02/12 02:33:43;;;;;;;21.75;14.65;;;;;;;10.07;69.90;101911.91;5013775;28;20115;-79
2023/02/12 02:36:40;;;;;;;22.98;14.05;;;;;;;10.07;70.01;101909.28;5031664;28;20079;-80
2023/02/12 02:39:35;;;;;;;27.75;14.63;;;;;;;10.08;69.98;101905.75;5032199;28;20045;-78
2023/02/12 02:42:13;;;;;;;25.23;15.18;;;;;;;10.07;70.09;101917.19;5026585;28;20132;-78
2023/02/12 02:44:53;;;;;;;26.27;14.70;;;;;;;10.06;70.14;101907.56;5032260;28;20056;-80
2023/02/12 02:47:27;;;;;;;21.13;14.63;;;;;;;10.08;70.15;101913.66;5031788;28;20489;-80
2023/02/12 02:50:00;;;;;;;23.40;15.10;;;;;;;10.09;70.29;101910.09;5031949;28;20057;-80
2023/02/12 02:52:39;;;;;;;25.23;15.25;;;;;;;10.07;70.13;101900.50;5012447;28;20052;-80
2023/02/12 02:55:10;;;;;;;21.02;14.82;;;;;;;10.10;69.99;101903.94;5031582;28;20045;-80
2023/02/12 02:57:46;;;;;;;24.25;15.27;;;;;;;10.11;70.12;101912.72;5023469;28;20041;-80
2023/02/12 03:00:20;;;;;;;22.80;14.20;;;;;;;10.08;70.25;101903.13;5027515;28;20055;-80
2023/02/12 03:02:54;;;;;;;25.35;14.82;;;;;;;10.10;70.18;101908.34;5010893;28;20054;-81
2023/02/12 03:08:23;;;;;;;22.65;15.05;;;;;;;10.09;70.17;101906.63;4951111;28;20082;-80
2023/02/12 03:11:03;;;;;;;;;;;;;;;10.12;70.18;101909.19;4953942;29;20051;-80
2023/02/12 03:13:40;;;;;;;22.05;14.80;;;;;;;10.13;69.98;101900.41;4953607;29;20276;-80
2023/02/12 03:16:14;;;;;;;23.38;16.02;;;;;;;10.12;70.18;101903.91;4952821;29;20413;-80
2023/02/12 03:18:48;;;;;;;27.98;16.17;;;;;;;10.10;70.16;101908.34;4953199;28;20051;-80
2023/02/12 03:21:23;;;;;;;26.80;15.98;;;;;;;10.08;70.28;101908.38;4953299;28;20525;-80
2023/02/12 03:24:00;;;;;;;28.17;17.42;;;;;;;10.08;70.30;101902.25;4953308;29;20052;-80
2023/02/12 03:26:48;;;;;;;27.02;18.10;;;;;;;10.04;70.38;101902.31;4951536;28;20059;-80
2023/02/12 03:29:15;;;;;;;27.33;17.17;;;;;;;10.10;70.11;101905.72;4952990;29;20484;-80
2023/02/12 03:31:49;;;;;;;26.02;16.75;;;;;;;10.09;70.12;101904.84;4953115;29;20054;-80
2023/02/12 03:34:30;;;;;;;24.52;15.93;;;;;;;10.08;70.26;101904.88;4953058;29;20051;-80
2023/02/12 03:37:04;;;;;;;29.75;17.17;;;;;;;10.07;70.38;101904.03;4952144;28;20065;-80
2023/02/12 03:39:51;;;;;;;28.85;17.63;;;;;;;10.04;70.26;101907.59;4953155;29;20086;-80
2023/02/12 03:42:56;;;;;;;27.35;17.73;;;;;;;10.03;70.33;101911.09;4952913;29;20066;-80
2023/02/12 03:45:37;;;;;;;27.42;17.58;;;;;;;10.08;70.20;101908.38;4952178;28;20051;-80
2023/02/12 03:48:27;;;;;;;28.35;17.08;;;;;;;10.04;70.43;101906.72;4952448;28;20146;-80
2023/02/12 03:51:00;;;;;;;28.38;18.05;;;;;;;10.06;70.42;101914.56;4952925;29;20055;-80
2023/02/12 03:53:28;;;;;;;31.42;19.25;;;;;;;10.08;70.47;101912.75;4952802;28;20087;-80
2023/02/12 03:56:04;;;;;;;35.30;18.50;;;;;;;10.05;70.27;101908.44;4952244;28;20077;-80
2023/02/12 03:58:34;;;;;;;30.02;18.05;;;;;;;10.04;70.39;101915.47;4952459;29;20253;-80
2023/02/12 04:01:02;;;;;;;28.88;18.63;;;;;;;10.05;70.24;101916.34;4952980;29;20109;-80
2023/02/12 04:03:29;;;;;;;32.08;19.08;;;;;;;10.04;70.20;101919.88;4952364;28;20066;-80
2023/02/12 04:05:56;;;;;;;32.70;19.52;;;;;;;10.04;70.28;101911.97;4951917;28;20555;-80
2023/02/12 04:08:26;;;;;;;30.73;18.80;;;;;;;10.02;70.40;101919.03;4952396;29;20055;-80
2023/02/12 04:10:52;;;;;;;33.85;20.25;;;;;;;10.02;70.49;101913.78;4952700;29;20144;-80
2023/02/12 04:13:39;;;;;;;31.90;19.85;;;;;;;9.97;70.71;101921.75;4952628;29;20133;-80
2023/02/12 04:16:18;;;;;;;32.53;19.48;;;;;;;10.02;70.42;101914.63;4948140;29;20055;-80
2023/02/12 04:18:50;;;;;;;34.05;19.65;;;;;;;10.02;70.27;101917.25;4952059;29;20055;-80
2023/02/12 04:21:43;;;;;;;40.78;20.35;;;;;;;9.97;70.64;101919.13;4952495;29;20514;-80
2023/02/12 04:24:24;;;;;;;33.13;19.40;;;;;;;9.99;70.51;101925.22;4935404;29;20051;-80
2023/02/12 04:27:00;;;;;;;36.25;19.65;;;;;;;9.98;70.43;101928.75;4951727;28;20484;-80
2023/02/12 04:29:36;;;;;;;30.67;19.05;;;;;;;9.97;70.47;101926.13;4952374;29;20135;-80
2023/02/12 04:32:16;;;;;;;32.33;19.95;;;;;;;9.95;70.67;101928.81;4952471;29;20043;-80
2023/02/12 04:35:07;;;;;;;34.75;19.17;;;;;;;9.94;70.66;101932.31;4952162;28;20098;-80
2023/02/12 04:37:41;;;;;;;35.95;20.45;;;;;;;9.97;70.49;101928.78;4952135;29;20146;-80
2023/02/12 04:40:12;;;;;;;32.53;19.40;;;;;;;9.95;70.58;101934.09;4952581;29;20055;-80
2023/02/12 04:42:47;;;;;;;34.00;21.00;;;;;;;9.95;70.64;101938.47;4952547;29;20058;-80
2023/02/12 04:45:19;;;;;;;31.70;20.67;;;;;;;9.96;70.54;101938.44;4952367;29;20065;-80
2023/02/12 04:47:46;;;;;;;36.70;19.50;;;;;;;9.98;70.45;101939.25;4952007;28;20101;-80
2023/02/12 04:50:13;;;;;;;31.88;19.45;;;;;;;9.98;70.44;101943.69;4952496;28;20463;-80
2023/02/12 04:52:39;;;;;;;32.60;20.40;;;;;;;9.98;70.55;101938.41;4952506;28;20051;-80
2023/02/12 04:55:06;;;;;;;32.13;20.08;;;;;;;9.98;70.65;101946.31;4951789;28;20059;-80
2023/02/12 04:57:33;;;;;;;33.50;20.05;;;;;;;9.97;70.47;101941.91;4951803;28;20488;-80
2023/02/12 04:59:59;;;;;;;39.42;21.17;;;;;;;9.97;70.86;101942.81;4952471;29;20047;-80
2023/02/12 05:02:25;;;;;;;36.83;21.05;;;;;;;9.95;70.67;101941.97;4952108;29;20102;-80
2023/02/12 05:04:52;;;;;;;37.08;21.73;;;;;;;9.94;70.50;101942.00;4952240;29;20055;-79
2023/02/12 05:07:19;;;;;;;34.92;21.23;;;;;;;9.90;70.27;101936.78;4951760;28;20114;-80
2023/02/12 05:09:45;;;;;;;35.53;21.02;;;;;;;9.88;70.47;101946.47;4952188;29;20051;-80
2023/02/12 05:12:12;;;;;;;39.10;20.80;;;;;;;9.83;70.72;101948.31;4952102;29;20058;-80
2023/02/12 05:14:38;;;;;;;34.05;20.90;;;;;;;9.82;70.69;101950.97;4951889;28;20100;-80
2023/02/12 05:17:04;;;;;;;37.15;21.73;;;;;;;9.78;70.52;101952.78;4953401;29;20419;-80
2023/02/12 05:19:31;;;;;;;36.72;22.25;;;;;;;9.74;70.83;101952.00;4955751;29;20058;-80
2023/02/12 05:21:58;;;;;;;33.00;21.15;;;;;;;9.71;70.59;101945.91;4955567;28;20134;-80
2023/02/12 05:24:24;;;;;;;37.08;21.80;;;;;;;9.68;70.87;101952.09;4955669;29;20059;-80
2023/02/12 05:26:51;;;;;;;34.08;21.27;;;;;;;9.67;70.89;101941.59;4954680;28;20047;-79
2023/02/12 05:29:18;;;;;;;36.70;22.08;;;;;;;9.64;70.97;101951.28;4955302;29;20085;-80
2023/02/12 05:31:44;;;;;;;38.13;22.25;;;;;;;9.64;70.98;101947.78;4955206;28;20063;-80
2023/02/12 05:34:12;;;;;;;38.35;22.20;;;;;;;9.65;71.05;101946.91;4955083;29;20484;-80
2023/02/12 05:36:39;;;;;;;34.33;20.17;;;;;;;9.65;71.21;101952.16;4954682;29;20083;-80
2023/02/12 05:39:06;;;;;;;35.00;21.88;;;;;;;9.65;71.08;101950.38;4955173;29;20061;-80
2023/02/12 05:41:34;;;;;;;38.22;21.27;;;;;;;9.67;71.13;101949.47;4955184;28;20062;-80
2023/02/12 05:44:02;;;;;;;35.72;20.77;;;;;;;9.67;71.27;101954.75;4954836;29;20047;-80
2023/02/12 05:46:29;;;;;;;38.00;22.55;;;;;;;9.67;71.05;101950.34;4954865;29;20047;-80
2023/02/12 05:48:56;;;;;;;38.72;21.08;;;;;;;9.67;71.28;101953.00;4954533;28;20472;-80
2023/02/12 05:51:25;;;;;;;38.17;22.15;;;;;;;9.68;71.30;101953.88;4954866;29;20058;-80
2023/02/12 05:53:56;;;;;;;35.67;22.90;;;;;;;9.67;71.29;101953.00;4954583;29;20123;-80
2023/02/12 05:56:26;;;;;;;37.80;22.73;;;;;;;9.68;71.22;101962.59;4954239;28;20043;-80
2023/02/12 05:58:56;;;;;;;40.65;22.70;;;;;;;9.68;71.21;101957.34;4954463;28;20110;-80
2023/02/12 06:01:28;;;;;;;37.67;22.65;;;;;;;9.70;71.25;101957.31;4953521;29;20062;-80
2023/02/12 06:03:56;;;;;;;35.30;22.58;;;;;;;9.71;71.21;101957.31;4954695;29;20119;-80
2023/02/12 06:06:28;;;;;;;37.75;21.80;;;;;;;9.70;71.48;101966.09;4954076;28;20492;-80
2023/02/12 06:08:56;;;;;;;39.42;22.20;;;;;;;9.72;71.20;101964.28;4936799;29;20106;-79
2023/02/12 06:11:23;;;;;;;38.13;23.05;;;;;;;9.72;71.14;101959.03;4954439;29;20063;-80
2023/02/12 06:13:50;;;;;;;36.60;22.25;;;;;;;9.72;71.15;101963.44;4954439;28;20053;-80
2023/02/12 06:16:22;;;;;;;44.70;22.95;;;;;;;9.71;71.27;101962.56;4953968;29;20800;-80
2023/02/12 06:18:49;;;;;;;34.72;22.08;;;;;;;9.72;71.05;101961.66;4953796;29;20050;-80
2023/02/12 06:21:17;;;;;;;35.90;21.33;;;;;;;9.72;71.17;101963.44;4953351;28;20063;-80
2023/02/12 06:23:44;;;;;;;35.75;22.20;;;;;;;9.71;71.01;101962.56;4954113;28;20065;-80
2023/02/12 06:26:11;;;;;;;32.53;20.80;;;;;;;9.71;71.01;101956.44;4953906;28;20051;-77
2023/02/12 06:28:37;;;;;;;39.92;23.45;;;;;;;9.70;70.97;101962.59;4953884;28;20055;-80
2023/02/12 06:31:04;;;;;;;38.22;23.23;;;;;;;9.69;70.96;101964.38;4953985;29;20047;-80
2023/02/12 06:33:31;;;;;;;37.83;22.50;;;;;;;9.69;71.17;101963.50;4953855;28;20114;-80
2023/02/12 06:36:03;;;;;;;38.30;24.17;;;;;;;9.65;71.18;101967.94;4953166;28;20468;-80
2023/02/12 06:38:29;;;;;;;35.97;22.77;;;;;;;9.66;71.12;101967.03;4953929;29;20051;-80
2023/02/12 06:40:56;;;;;;;38.38;22.30;;;;;;;9.63;71.17;101978.47;4953776;28;20047;-78
2023/02/12 06:43:22;;;;;;;33.33;21.02;;;;;;;9.63;71.22;101982.88;4954114;29;20055;-78
2023/02/12 06:45:50;;;;;;;36.33;23.10;;;;;;;9.62;71.08;101971.50;4936433;29;20056;-78
2023/02/12 06:48:16;;;;;;;36.38;22.17;;;;;;;9.62;71.21;101981.13;4953146;29;20047;-78
2023/02/12 06:50:43;;;;;;;39.25;23.05;;;;;;;9.61;71.37;101984.66;4953328;29;20059;-78
2023/02/12 06:53:09;;;;;;;37.35;22.10;;;;;;;9.59;71.26;101986.44;4953920;29;20146;-78
2023/02/12 06:55:36;;;;;;;32.33;21.73;;;;;;;9.58;71.28;101984.72;4953030;29;20062;-78
2023/02/12 06:58:02;;;;;;;42.33;23.38;;;;;;;9.57;71.40;101982.97;4953310;29;20162;-78
2023/02/12 07:00:29;;;;;;;39.03;23.05;;;;;;;9.56;71.36;101994.38;4952488;29;20047;-78
2023/02/12 07:02:56;;;;;;;38.33;23.17;;;;;;;9.55;71.51;101997.91;4952879;29;20582;-78
2023/02/12 07:05:23;;;;;;;37.33;22.63;;;;;;;9.56;71.35;102004.88;4935083;29;20146;-78
2023/02/12 07:07:50;;;;;;;38.85;21.83;;;;;;;9.55;71.40;102001.41;4952358;29;20058;-79
2023/02/12 07:10:17;;;;;;;34.53;22.65;;;;;;;9.55;71.31;101998.78;4952833;29;20074;-78
2023/02/12 07:12:45;;;;;;;38.95;22.55;;;;;;;9.56;71.38;101997.88;4951680;29;20147;-79
2023/02/12 07:15:12;;;;;;;38.15;22.40;;;;;;;9.56;71.39;102000.50;4953087;28;20145;-78
2023/02/12 07:17:39;;;;;;;39.72;23.15;;;;;;;9.58;71.51;102003.13;4952663;28;20055;-78
2023/02/12 07:20:06;;;;;;;41.65;23.63;;;;;;;9.56;71.50;102002.25;4953568;29;20061;-78
2023/02/12 07:22:36;;;;;;;35.20;22.08;;;;;;;9.55;71.54;101997.91;4953442;28;20055;-78
2023/02/12 07:25:03;;;;;;;33.08;22.02;;;;;;;9.56;71.47;102008.41;4953052;29;20052;-77
2023/02/12 07:27:29;;;;;;;39.25;22.92;;;;;;;9.57;71.48;102004.00;4952776;29;20054;-78
2023/02/12 07:29:56;;;;;;;36.88;22.70;;;;;;;9.57;71.50;102011.91;4953272;29;20143;-78
2023/02/12 07:32:22;;;;;;;37.65;22.77;;;;;;;9.58;71.86;102019.78;4952918;29;20508;-78
2023/02/12 07:34:48;;;;;;;38.20;22.60;;;;;;;9.60;71.69;102019.72;4952950;29;20055;-78
2023/02/12 07:37:21;;;;;;;39.80;22.75;;;;;;;9.61;71.81;102013.59;4952503;29;20059;-78
2023/02/12 07:39:48;;;;;;;34.42;22.33;;;;;;;9.62;71.51;102021.47;4952718;28;20134;-78
2023/02/12 07:42:15;;;;;;;34.80;21.63;;;;;;;9.64;71.63;102024.91;4953031;29;20118;-78
2023/02/12 07:44:41;;;;;;;38.00;22.83;;;;;;;9.65;71.72;102028.44;4952878;29;20534;-78
2023/02/12 07:47:08;;;;;;;33.78;21.83;;;;;;;9.67;71.71;102029.25;4952644;29;20065;-77
2023/02/12 07:49:34;;;;;;;35.60;23.45;;;;;;;9.68;71.46;102032.75;4952952;29;20118;-78
2023/02/12 07:52:01;;;;;;;33.10;22.25;;;;;;;9.69;71.67;102035.38;4952889;29;20105;-78
2023/02/12 07:54:27;;;;;;;32.38;22.65;;;;;;;9.70;71.44;102041.47;4951628;29;20067;-78
2023/02/12 07:56:53;;;;;;;33.72;21.15;;;;;;;9.70;71.67;102041.47;4951984;29;20074;-78
2023/02/12 07:59:20;;;;;;;33.83;21.80;;;;;;;9.71;71.82;102046.72;4952808;29;20134;-78
2023/02/12 08:01:51;;;;;;;41.72;23.33;;;;;;;9.69;71.61;102048.53;4953010;29;20134;-78
2023/02/12 08:04:20;;;;;;;34.92;21.98;;;;;;;9.72;71.55;102047.59;4952705;29;20488;-78
2023/02/12 08:06:49;;;;;;;35.45;22.52;;;;;;;9.73;71.71;102047.59;4951796;29;20143;-78
2023/02/12 08:09:22;;;;;;;39.40;22.33;;;;;;;9.73;71.79;102058.09;4952561;29;20083;-78
2023/02/12 08:11:49;;;;;;;35.97;21.50;;;;;;;9.78;71.83;102052.75;4952600;29;20106;-78
2023/02/12 08:14:18;;;;;;;34.60;22.10;;;;;;;9.80;71.71;102056.22;4952397;29;20495;-78
2023/02/12 08:16:47;;;;;;;38.60;22.83;;;;;;;9.80;71.76;102056.22;4951927;29;20095;-78
2023/02/12 08:19:14;;;;;;;35.30;22.73;;;;;;;9.84;71.68;102057.03;4952591;29;20051;-78
2023/02/12 08:21:51;;;;;;;36.97;21.98;;;;;;;9.84;71.63;102068.44;4952914;29;20126;-78
2023/02/12 08:24:18;;;;;;;32.42;20.45;;;;;;;9.86;71.84;102064.00;4952315;29;20043;-78
2023/02/12 08:26:44;;;;;;;34.90;21.30;;;;;;;9.88;71.54;102071.88;4951539;28;20399;-78
2023/02/12 08:29:14;;;;;;;39.53;21.92;;;;;;;9.88;71.80;102074.50;4952480;29;20055;-78
2023/02/12 08:31:43;;;;;;;32.47;20.90;;;;;;;9.90;71.71;102077.97;4952172;29;20087;-79
2023/02/12 08:34:20;;;;;;;31.10;20.48;;;;;;;9.89;72.22;102074.50;4952290;29;20091;-78
2023/02/12 08:36:52;;;;;;;35.67;21.77;;;;;;;9.94;71.59;102079.66;4951440;29;20052;-78
2023/02/12 08:39:20;;;;;;;32.45;21.30;;;;;;;9.97;71.83;102084.00;4952482;29;20051;-78
2023/02/12 08:41:47;;;;;;;35.55;21.10;;;;;;;9.97;71.83;102079.63;4952430;29;20423;-78
2023/02/12 08:44:15;;;;;;;33.33;20.38;;;;;;;10.00;71.54;102092.72;4952272;29;20087;-79
2023/02/12 08:46:45;;;;;;;28.83;20.05;;;;;;;10.00;71.95;102089.22;4951413;29;20050;-78
2023/02/12 08:49:14;;;;;;;31.88;20.27;;;;;;;10.03;72.00;102091.81;4952233;28;20057;-78
2023/02/12 08:51:48;;;;;;;36.00;21.15;;;;;;;10.03;72.04;102086.53;4954750;28;20055;-78
2023/02/12 08:54:18;;;;;;;32.35;19.33;;;;;;;10.06;71.96;102088.25;4955821;29;20059;-79
2023/02/12 08:56:45;;;;;;;35.17;20.98;;;;;;;10.10;71.93;102089.94;4955138;29;20055;-78
2023/02/12 08:59:13;;;;;;;32.92;21.05;;;;;;;10.11;72.00;102096.94;4955697;29;20055;-78
2023/02/12 09:01:43;;;;;;;32.08;20.13;;;;;;;10.12;71.91;102086.38;4955752;29;20078;-78
2023/02/12 09:04:16;;;;;;;30.83;19.92;;;;;;;10.11;72.26;102089.91;4955605;29;20055;-78
2023/02/12 09:06:44;;;;;;;31.35;19.88;;;;;;;10.16;71.87;102100.34;5062767;22;20049;-81
2023/02/12 09:09:11;;;;;;;38.63;22.17;;;;;;;10.17;72.02;102091.56;5015188;28;20064;-80
2023/02/12 09:11:37;;;;;;;30.90;20.83;;;;;;;10.19;71.96;102097.66;5015264;28;20061;-80
2023/02/12 09:14:06;;;;;;;29.83;20.63;;;;;;;10.20;72.13;102102.03;5015358;28;20167;-80
2023/02/12 09:16:34;;;;;;;31.90;20.98;;;;;;;10.21;72.05;102103.75;5032004;28;20049;-80
2023/02/12 09:19:01;;;;;;;30.08;19.25;;;;;;;10.23;72.05;102095.84;5032838;28;20057;-80
2023/02/12 09:21:28;;;;;;;31.63;19.50;;;;;;;10.26;72.25;102101.06;5032870;28;20050;-81
2023/02/12 09:23:54;;;;;;;27.60;18.83;;;;;;;10.28;72.36;102099.28;5032723;28;20053;-81
2023/02/12 09:26:24;;;;;;;30.40;18.83;;;;;;;10.30;72.29;102105.38;5014753;28;20072;-81
2023/02/12 09:28:51;;;;;;;27.10;17.48;;;;;;;10.33;72.41;102099.19;5032216;28;20504;-80
2023/02/12 09:31:25;;;;;;;27.80;17.40;;;;;;;10.33;72.26;102102.69;5032616;28;20123;-81
2023/02/12 09:33:57;;;;;;;24.42;17.40;;;;;;;10.36;72.10;102102.63;5032982;28;20057;-80
2023/02/12 09:36:24;;;;;;;24.25;17.42;;;;;;;10.37;72.00;102106.13;5032047;28;20072;-80
2023/02/12 09:38:50;;;;;;;26.88;17.70;;;;;;;10.37;72.04;102111.41;5014314;28;20503;-80
2023/02/12 09:41:50;;;;;;;24.88;17.15;;;;;;;10.34;72.39;102111.44;5032321;28;20559;-81
2023/02/12 09:44:45;;;;;;;25.83;16.42;;;;;;;10.37;72.55;102111.41;5026018;28;20065;-80
2023/02/12 09:47:22;;;;;;;24.67;16.73;;;;;;;10.40;72.33;102116.63;5010969;28;20045;-80
2023/02/12 09:50:26;;;;;;;34.80;19.90;;;;;;;10.40;72.54;102119.25;5022649;28;20396;-81
2023/02/12 09:52:55;;;;;;;36.85;17.83;;;;;;;10.46;72.55;102127.06;5046440;28;20052;-80
2023/02/12 09:55:27;;;;;;;31.05;17.17;;;;;;;10.49;72.60;102128.75;5033901;28;20044;-81
2023/02/12 09:57:54;;;;;;;39.77;18.10;;;;;;;10.54;72.53;102135.69;5034126;28;20110;-81
2023/02/12 10:00:26;;;;;;;28.00;17.08;;;;;;;10.58;72.55;102133.00;5032552;28;20056;-81
2023/02/12 10:02:53;;;;;;;22.95;15.02;;;;;;;10.63;72.40;102131.16;5010682;28;20504;-81
2023/02/12 10:05:49;;;;;;;25.10;15.63;;;;;;;10.64;72.71;102135.50;5029564;28;20049;-81
2023/02/12 10:08:34;;;;;;;24.55;15.85;;;;;;;10.69;72.55;102128.38;5030227;28;20103;-81
2023/02/12 10:11:18;;;;;;;23.02;14.55;;;;;;;10.75;72.21;102136.19;5032097;28;20104;-81
2023/02/12 10:14:04;;;;;;;21.38;12.85;;;;;;;10.80;72.33;102133.44;5032036;28;20495;-81
2023/02/12 10:16:57;;;;;;;25.35;13.90;;;;;;;10.78;72.61;102130.88;5031269;28;20107;-81
2023/02/12 10:19:26;;;;;;;21.17;13.38;;;;;;;10.87;72.31;102134.22;5032040;28;20077;-81
2023/02/12 10:22:07;;;;;;;21.45;13.43;;;;;;;10.86;72.46;102132.47;5031897;28;20053;-80
2023/02/12 10:24:40;;;;;;;18.63;12.00;;;;;;;10.94;72.82;102134.06;5031996;28;20399;-80
2023/02/12 10:27:24;;;;;;;18.45;11.68;;;;;;;10.98;73.26;102129.56;5013257;28;20496;-81
2023/02/12 10:29:51;;;;;;;20.23;12.27;;;;;;;11.14;73.58;102131.91;5014097;28;20062;-80
2023/02/12 10:32:26;;;;;;;18.88;10.50;;;;;;;11.22;73.28;102135.25;5031568;28;20575;-81
2023/02/12 10:34:55;;;;;;;15.73;10.55;;;;;;;11.33;72.77;102132.38;5031369;28;20045;-81
2023/02/12 10:37:42;;;;;;;14.63;9.70;;;;;;;11.39;72.41;102140.16;5013111;28;20057;-80
2023/02/12 10:40:27;;;;;;;11.98;8.30;;;;;;;11.51;72.22;102131.09;5031678;28;20050;-80
2023/02/12 10:42:53;;;;;;;11.50;8.35;;;;;;;11.61;72.52;102131.75;5031572;28;20064;-80
2023/02/12 10:45:25;;;;;;;13.57;8.25;;;;;;;11.67;71.93;102136.03;5013541;28;20049;-81
2023/02/12 10:48:00;;;;;;;14.10;9.68;;;;;;;11.72;71.50;102123.59;5031238;28;20266;-81
2023/02/12 10:50:32;;;;;;;18.17;10.38;;;;;;;11.74;71.28;102127.06;5031510;28;20053;-81
2023/02/12 10:53:02;;;;;;;15.93;10.02;;;;;;;11.79;71.50;102121.66;5031350;28;20045;-81
2023/02/12 10:55:31;;;;;;;17.50;10.65;;;;;;;11.84;72.16;102119.78;5030822;28;20053;-81
2023/02/12 10:57:59;;;;;;;15.60;10.43;;;;;;;11.91;72.75;102125.78;5012972;28;20055;-81
2023/02/12 11:00:36;;;;;;;17.35;11.23;;;;;;;11.98;72.26;102128.25;5031400;28;20123;-81
2023/02/12 11:03:04;;;;;;;15.50;11.07;;;;;;;12.11;72.44;102126.19;5031230;28;20131;-81
2023/02/12 11:05:33;;;;;;;17.83;11.10;;;;;;;12.23;72.04;102127.63;5030623;28;20103;-80
2023/02/12 11:08:01;;;;;;;19.73;12.23;;;;;;;12.31;71.72;102123.94;5012647;28;20050;-81
2023/02/12 11:10:37;;;;;;;16.60;10.55;;;;;;;12.38;70.62;102125.53;5031023;28;20069;-81
2023/02/12 11:13:04;;;;;;;16.70;11.32;;;;;;;12.45;70.60;102127.06;5030236;28;20049;-80
2023/02/12 11:15:37;;;;;;;18.25;12.02;;;;;;;12.45;69.65;102126.22;5030401;28;20063;-81
2023/02/12 11:18:06;;;;;;;;;;;;;;;12.50;70.15;102126.97;5012969;28;20052;-81
2023/02/12 11:20:50;;;;;;;13.95;9.10;;;;;;;12.53;69.47;102126.88;5030653;28;20383;-81
2023/02/12 11:23:36;;;;;;;16.17;10.10;;;;;;;12.56;70.03;102131.22;5011028;28;20053;-81
2023/02/12 11:26:03;;;;;;;14.63;10.50;;;;;;;12.63;70.67;102124.84;5030178;28;20135;-81
2023/02/12 11:28:31;;;;;;;14.52;11.02;;;;;;;12.66;70.66;102116.84;5012529;28;20500;-81
2023/02/12 11:31:03;;;;;;;16.50;10.90;;;;;;;12.72;70.04;102116.69;5012919;28;20137;-81
2023/02/12 11:33:35;;;;;;;20.80;12.65;;;;;;;12.84;70.66;102120.75;5030288;28;20420;-81
2023/02/12 11:36:14;;;;;;;17.83;11.60;;;;;;;12.94;70.58;102115.19;5030147;28;20053;-81
2023/02/12 11:38:50;;;;;;;17.92;11.90;;;;;;;13.05;69.73;102113.13;5029802;28;20049;-81